Time,TemperatureF,DewpointF,PressureIn,WindDirection,WindDirectionDegrees,WindSpeedMPH,WindSpeedGustMPH,Humidity,HourlyPrecipIn,Conditions,Clouds,dailyrainin,SolarRadiationWatts/m^2,SoftwareType,DateUTC
2014-04-02 00:22:00,47.0,44.0,-100.00,South,177,5.0,9.0,89,-99.99,,,-99.99,0.000000,,2014-04-02 07:22:00,
2014-04-02 00:32:00,47.0,44.0,-100.00,South,177,5.0,9.0,89,-99.99,,,-99.99,0.000000,,2014-04-02 07:32:00,
2014-04-02 00:42:00,47.0,44.0,-100.00,South,177,5.0,9.0,89,-99.99,,,-99.99,0.000000,,2014-04-02 07:42:00,
2014-04-02 01:21:00,46.0,43.0,-100.00,South,177,5.0,10.0,89,-99.99,,,-99.99,0.000000,,2014-04-02 08:21:00,
2014-04-02 01:32:00,46.0,43.0,-100.00,South,177,5.0,10.0,89,-99.99,,,-99.99,0.000000,,2014-04-02 08:32:00,
2014-04-02 01:42:00,46.0,43.0,-100.00,South,177,5.0,10.0,89,-99.99,,,-99.99,0.000000,,2014-04-02 08:42:00,
2014-04-02 02:21:00,45.0,43.0,-100.00,South,177,4.0,6.0,91,-99.99,,,-99.99,0.000000,,2014-04-02 09:21:00,
2014-04-02 02:33:00,45.0,43.0,-100.00,South,177,4.0,6.0,91,-99.99,,,-99.99,0.000000,,2014-04-02 09:33:00,
2014-04-02 02:43:00,45.0,43.0,-100.00,South,177,4.0,6.0,91,-99.99,,,-99.99,0.000000,,2014-04-02 09:43:00,
2014-04-02 03:23:00,45.0,43.0,-100.00,South,177,5.0,8.0,91,-99.99,,,-99.99,0.000000,,2014-04-02 10:23:00,
2014-04-02 03:33:00,45.0,43.0,-100.00,South,177,5.0,8.0,91,-99.99,,,-99.99,0.000000,,2014-04-02 10:33:00,
2014-04-02 03:43:00,45.0,43.0,-100.00,South,177,5.0,8.0,91,-99.99,,,-99.99,0.000000,,2014-04-02 10:43:00,
2014-04-02 04:22:00,45.0,43.0,-100.00,South,177,3.0,6.0,92,-99.99,,,-99.99,0.000000,,2014-04-02 11:22:00,
2014-04-02 04:33:00,45.0,43.0,-100.00,South,177,3.0,6.0,92,-99.99,,,-99.99,0.000000,,2014-04-02 11:33:00,
2014-04-02 04:43:00,45.0,43.0,-100.00,South,177,3.0,6.0,92,-99.99,,,-99.99,0.000000,,2014-04-02 11:43:00,
2014-04-02 05:22:00,45.0,43.0,-100.00,South,177,3.0,5.0,91,-99.99,,,-99.99,0.000000,,2014-04-02 12:22:00,
2014-04-02 05:32:00,45.0,43.0,-100.00,South,177,3.0,5.0,91,-99.99,,,-99.99,0.000000,,2014-04-02 12:32:00,
2014-04-02 05:42:00,45.0,43.0,-100.00,South,177,3.0,5.0,91,-99.99,,,-99.99,0.000000,,2014-04-02 12:42:00,
2014-04-02 06:22:00,44.0,42.0,-100.00,South,177,4.0,7.0,93,-99.99,,,-99.99,0.000000,,2014-04-02 13:22:00,
2014-04-02 06:32:00,44.0,42.0,-100.00,South,177,4.0,7.0,93,-99.99,,,-99.99,0.000000,,2014-04-02 13:32:00,
2014-04-02 06:42:00,44.0,42.0,-100.00,South,177,4.0,7.0,93,-99.99,,,-99.99,0.000000,,2014-04-02 13:42:00,
2014-04-02 07:21:00,44.0,42.0,-100.00,South,177,3.0,5.0,94,-99.99,,,-99.99,1.000000,,2014-04-02 14:21:00,
2014-04-02 07:32:00,44.0,42.0,-100.00,South,177,3.0,5.0,94,-99.99,,,-99.99,1.000000,,2014-04-02 14:32:00,
2014-04-02 07:42:00,44.0,42.0,-100.00,South,177,3.0,5.0,94,-99.99,,,-99.99,1.000000,,2014-04-02 14:42:00,
2014-04-02 08:22:00,45.0,43.0,-100.00,South,177,2.0,3.0,93,-99.99,,,-99.99,43.000000,,2014-04-02 15:22:00,
2014-04-02 08:33:00,45.0,43.0,-100.00,South,177,2.0,3.0,93,-99.99,,,-99.99,43.000000,,2014-04-02 15:33:00,
2014-04-02 08:44:00,45.0,43.0,-100.00,South,177,2.0,3.0,93,-99.99,,,-99.99,43.000000,,2014-04-02 15:44:00,
2014-04-02 09:29:00,52.0,42.0,-100.00,South,177,1.0,3.0,68,-99.99,,,-99.99,283.000000,,2014-04-02 16:29:00,
2014-04-02 09:43:00,52.0,42.0,-100.00,South,177,1.0,3.0,68,-99.99,,,-99.99,283.000000,,2014-04-02 16:43:00,
2014-04-02 10:22:00,50.0,41.0,-100.00,South,177,3.0,5.0,72,-99.99,,,-99.99,107.000000,,2014-04-02 17:22:00,
2014-04-02 10:34:00,50.0,41.0,-100.00,South,177,3.0,5.0,72,-99.99,,,-99.99,107.000000,,2014-04-02 17:34:00,
2014-04-02 10:43:00,50.0,41.0,-100.00,South,177,3.0,5.0,72,-99.99,,,-99.99,107.000000,,2014-04-02 17:43:00,
2014-04-02 11:22:00,54.0,42.0,-100.00,South,177,3.0,6.0,63,-99.99,,,-99.99,129.000000,,2014-04-02 18:22:00,
2014-04-02 11:32:00,54.0,42.0,-100.00,South,177,3.0,6.0,63,-99.99,,,-99.99,129.000000,,2014-04-02 18:32:00,
2014-04-02 11:42:00,54.0,42.0,-100.00,South,177,3.0,6.0,63,-99.99,,,-99.99,129.000000,,2014-04-02 18:42:00,
2014-04-02 12:22:00,54.0,42.0,-100.00,South,177,5.0,8.0,63,-99.99,,,-99.99,582.000000,,2014-04-02 19:22:00,
2014-04-02 12:32:00,54.0,42.0,-100.00,South,177,5.0,8.0,63,-99.99,,,-99.99,582.000000,,2014-04-02 19:32:00,
2014-04-02 12:42:00,54.0,42.0,-100.00,South,177,5.0,8.0,63,-99.99,,,-99.99,582.000000,,2014-04-02 19:42:00,
2014-04-02 13:22:00,58.0,39.0,-100.00,South,177,3.0,6.0,50,-99.99,,,-99.99,898.000000,,2014-04-02 20:22:00,
2014-04-02 13:32:00,58.0,39.0,-100.00,South,177,3.0,6.0,50,-99.99,,,-99.99,898.000000,,2014-04-02 20:32:00,
2014-04-02 13:42:00,58.0,39.0,-100.00,South,177,3.0,6.0,50,-99.99,,,-99.99,898.000000,,2014-04-02 20:42:00,
2014-04-02 14:22:00,58.0,40.0,-100.00,South,177,4.0,8.0,51,-99.99,,,-99.99,886.000000,,2014-04-02 21:22:00,
2014-04-02 14:33:00,58.0,40.0,-100.00,South,177,4.0,8.0,51,-99.99,,,-99.99,886.000000,,2014-04-02 21:33:00,
2014-04-02 14:43:00,58.0,40.0,-100.00,South,177,4.0,8.0,51,-99.99,,,-99.99,886.000000,,2014-04-02 21:43:00,
2014-04-02 15:23:00,60.0,40.0,-100.00,South,177,3.0,7.0,48,-99.99,,,-99.99,824.000000,,2014-04-02 22:23:00,
2014-04-02 15:33:00,60.0,40.0,-100.00,South,177,3.0,7.0,48,-99.99,,,-99.99,824.000000,,2014-04-02 22:33:00,
2014-04-02 15:43:00,60.0,40.0,-100.00,South,177,3.0,7.0,48,-99.99,,,-99.99,824.000000,,2014-04-02 22:43:00,
2014-04-02 16:22:00,62.0,39.0,-100.00,South,177,4.0,7.0,43,-99.99,,,-99.99,711.000000,,2014-04-02 23:22:00,
2014-04-02 16:33:00,62.0,39.0,-100.00,South,177,4.0,7.0,43,-99.99,,,-99.99,711.000000,,2014-04-02 23:33:00,
2014-04-02 16:43:00,62.0,39.0,-100.00,South,177,4.0,7.0,43,-99.99,,,-99.99,711.000000,,2014-04-02 23:43:00,
2014-04-02 17:21:00,64.0,39.0,-100.00,South,177,3.0,5.0,39,-99.99,,,-99.99,547.000000,,2014-04-03 00:21:00,
2014-04-02 17:32:00,64.0,39.0,-100.00,South,177,3.0,5.0,39,-99.99,,,-99.99,547.000000,,2014-04-03 00:32:00,
2014-04-02 17:42:00,64.0,39.0,-100.00,South,177,3.0,5.0,39,-99.99,,,-99.99,547.000000,,2014-04-03 00:42:00,
2014-04-02 18:22:00,65.0,39.0,-100.00,South,177,3.0,5.0,38,-99.99,,,-99.99,346.000000,,2014-04-03 01:22:00,
2014-04-02 18:32:00,65.0,39.0,-100.00,South,177,3.0,5.0,38,-99.99,,,-99.99,346.000000,,2014-04-03 01:32:00,
2014-04-02 18:42:00,65.0,39.0,-100.00,South,177,3.0,5.0,38,-99.99,,,-99.99,346.000000,,2014-04-03 01:42:00,
2014-04-02 19:22:00,63.0,40.0,-100.00,South,177,2.0,4.0,42,-99.99,,,-99.99,148.000000,,2014-04-03 02:22:00,
2014-04-02 19:32:00,63.0,40.0,-100.00,South,177,2.0,4.0,42,-99.99,,,-99.99,148.000000,,2014-04-03 02:32:00,
2014-04-02 19:42:00,63.0,40.0,-100.00,South,177,2.0,4.0,42,-99.99,,,-99.99,148.000000,,2014-04-03 02:42:00,
2014-04-02 20:22:00,57.0,42.0,-100.00,South,177,1.0,2.0,57,-99.99,,,-99.99,2.000000,,2014-04-03 03:22:00,
2014-04-02 20:34:00,57.0,42.0,-100.00,South,177,1.0,2.0,57,-99.99,,,-99.99,2.000000,,2014-04-03 03:34:00,
2014-04-02 20:43:00,57.0,42.0,-100.00,South,177,1.0,2.0,57,-99.99,,,-99.99,2.000000,,2014-04-03 03:43:00,
2014-04-02 21:23:00,53.0,45.0,-100.00,South,177,1.0,1.0,73,-99.99,,,-99.99,0.000000,,2014-04-03 04:23:00,
2014-04-02 21:33:00,53.0,45.0,-100.00,South,177,1.0,1.0,73,-99.99,,,-99.99,0.000000,,2014-04-03 04:33:00,
2014-04-02 21:43:00,53.0,45.0,-100.00,South,177,1.0,1.0,73,-99.99,,,-99.99,0.000000,,2014-04-03 04:43:00,
2014-04-02 22:22:00,50.0,42.0,-100.00,South,177,2.0,5.0,75,-99.99,,,-99.99,0.000000,,2014-04-03 05:22:00,
2014-04-02 22:33:00,50.0,42.0,-100.00,South,177,2.0,5.0,75,-99.99,,,-99.99,0.000000,,2014-04-03 05:33:00,
2014-04-02 22:42:00,50.0,42.0,-100.00,South,177,2.0,5.0,75,-99.99,,,-99.99,0.000000,,2014-04-03 05:42:00,
2014-04-02 23:22:00,49.0,42.0,-100.00,South,177,4.0,7.0,77,-99.99,,,-99.99,0.000000,,2014-04-03 06:22:00,
2014-04-02 23:32:00,49.0,42.0,-100.00,South,177,4.0,7.0,77,-99.99,,,-99.99,0.000000,,2014-04-03 06:32:00,
2014-04-02 23:42:00,49.0,42.0,-100.00,South,177,4.0,7.0,77,-99.99,,,-99.99,0.000000,,2014-04-03 06:42:00,